Schwenksville, Pennsylvania
Current Conditions -  °F | °C
As of 1:54 AM on Saturday 29 Nov 2014 (Local Time) from KPTW Reporting Station
Few Clouds Few Clouds  
Wind Chill: 22°   Ceiling: Unl
Heat Index: 22°   Visibility: 10mi
Dew Point: 18°   Wind: 0mph
Humidity: 85%   Direction: NA
Pressure: 30.31"   Gusts: NA
Location:  40.26°N, 75.46°W
Report Text: KPTW 290654Z AUTO 00000KT 10SM FEW110 M06/M08 A3031 RMK AO2 SLP265 T10561078
Loading
Personal Weather Stations






























Interactive Weather Map New forecast layout! Learn more

10-Day Weather Forecast

Advertisements
Track Severe Weather on mobile